createdAt,value
2019-03-12T00:00:34.690Z,3.00
2019-03-12T00:03:03.118Z,2.94
2019-03-12T00:05:31.533Z,2.93
2019-03-12T00:07:59.943Z,2.84
2019-03-12T00:10:28.439Z,2.82
2019-03-12T00:12:56.908Z,2.82
2019-03-12T00:15:25.378Z,2.77
2019-03-12T00:17:53.859Z,2.78
2019-03-12T00:20:22.305Z,2.91
2019-03-12T00:22:50.794Z,3.03
2019-03-12T00:25:19.278Z,0.52
2019-03-12T00:27:47.680Z,3.13
2019-03-12T00:30:16.219Z,3.12
2019-03-12T00:32:44.661Z,3.08
2019-03-12T00:35:13.252Z,3.10
2019-03-12T00:37:41.705Z,3.04
2019-03-12T00:40:10.364Z,3.00
2019-03-12T00:42:38.754Z,2.98
2019-03-12T00:45:09.733Z,2.97
2019-03-12T00:47:38.250Z,2.96
2019-03-12T00:50:09.095Z,2.92
2019-03-12T00:52:37.582Z,2.90
2019-03-12T00:55:08.091Z,2.86
2019-03-12T00:57:36.586Z,2.83
2019-03-12T01:00:10.986Z,2.74
2019-03-12T01:02:39.406Z,2.73
2019-03-12T01:05:08.223Z,2.73
2019-03-12T01:07:36.634Z,2.67
2019-03-12T01:10:07.580Z,2.60
2019-03-12T01:12:36.021Z,2.51
2019-03-12T01:15:05.977Z,2.52
2019-03-12T01:17:34.377Z,2.56
2019-03-12T01:20:02.934Z,2.57
2019-03-12T01:22:31.398Z,2.56
2019-03-12T01:24:59.805Z,2.56
2019-03-12T01:27:28.233Z,2.56
2019-03-12T01:29:56.698Z,2.54
2019-03-12T01:32:25.261Z,2.53
2019-03-12T01:34:53.698Z,2.43
2019-03-12T01:37:22.118Z,2.37
2019-03-12T01:39:50.575Z,2.23
2019-03-12T01:42:18.957Z,2.13
2019-03-12T01:44:47.351Z,2.14
2019-03-12T01:47:15.959Z,2.25
2019-03-12T01:49:44.479Z,2.29
2019-03-12T01:52:12.955Z,2.31
2019-03-12T01:54:41.388Z,2.36
2019-03-12T01:57:09.856Z,2.36
2019-03-12T01:59:38.288Z,2.38
2019-03-12T02:02:06.759Z,2.40
2019-03-12T02:04:35.235Z,2.39
2019-03-12T02:07:03.743Z,2.42
2019-03-12T02:09:32.255Z,2.45
2019-03-12T02:12:00.677Z,2.42
2019-03-12T02:14:29.530Z,2.40
2019-03-12T02:16:58.032Z,2.40
2019-03-12T02:19:26.525Z,2.40
2019-03-12T02:21:55.076Z,2.35
2019-03-12T02:24:23.567Z,2.07
2019-03-12T02:26:51.950Z,2.01
2019-03-12T02:29:20.447Z,2.03
2019-03-12T02:31:48.929Z,2.01
2019-03-12T02:34:17.421Z,2.05
2019-03-12T02:36:45.911Z,2.08
2019-03-12T02:39:14.359Z,2.10
2019-03-12T02:41:42.812Z,2.15
2019-03-12T02:44:11.224Z,2.13
2019-03-12T02:46:39.650Z,2.08
2019-03-12T02:49:09.820Z,2.09
2019-03-12T02:51:38.252Z,2.07
2019-03-12T02:54:06.640Z,2.06
2019-03-12T02:56:35.057Z,2.05
2019-03-12T02:59:03.474Z,2.02
2019-03-12T03:01:31.881Z,1.96
2019-03-12T03:04:00.281Z,1.91
2019-03-12T03:06:30.318Z,1.84
2019-03-12T03:08:58.801Z,1.82
2019-03-12T03:11:27.369Z,1.80
2019-03-12T03:13:55.796Z,1.79
2019-03-12T03:16:24.786Z,1.81
2019-03-12T03:18:53.231Z,1.85
2019-03-12T03:21:21.915Z,1.86
2019-03-12T03:23:50.304Z,1.87
2019-03-12T03:26:18.726Z,1.80
2019-03-12T03:28:47.179Z,1.75
2019-03-12T03:31:15.616Z,1.73
2019-03-12T03:33:44.125Z,1.74
2019-03-12T03:36:12.567Z,1.72
2019-03-12T03:38:40.980Z,1.78
2019-03-12T03:41:09.422Z,1.77
2019-03-12T03:43:37.870Z,1.84
2019-03-12T03:46:06.268Z,1.87
2019-03-12T03:48:34.679Z,1.91
2019-03-12T03:51:03.146Z,1.88
2019-03-12T03:53:31.682Z,1.90
2019-03-12T03:56:00.083Z,1.95
2019-03-12T03:58:28.591Z,1.96
2019-03-12T04:00:57.065Z,2.01
2019-03-12T04:03:25.482Z,2.00
2019-03-12T04:05:53.877Z,2.02
2019-03-12T04:08:22.385Z,1.97
2019-03-12T04:10:50.787Z,2.01
2019-03-12T04:13:19.284Z,2.04
2019-03-12T04:15:47.715Z,2.06
2019-03-12T04:18:16.169Z,2.08
2019-03-12T04:20:44.591Z,2.07
2019-03-12T04:23:15.797Z,2.05
2019-03-12T04:25:43.725Z,2.08
2019-03-12T04:28:12.118Z,2.09
2019-03-12T04:30:40.532Z,2.08
2019-03-12T04:33:28.394Z,2.10
2019-03-12T04:35:56.803Z,2.14
2019-03-12T04:38:25.224Z,2.17
2019-03-12T04:40:53.638Z,2.16
2019-03-12T04:43:22.169Z,2.17
2019-03-12T04:45:50.591Z,2.17
2019-03-12T04:48:18.971Z,2.19
2019-03-12T04:50:47.421Z,2.21
2019-03-12T04:53:15.850Z,2.24
2019-03-12T04:55:44.242Z,2.23
2019-03-12T04:58:12.669Z,2.26
2019-03-12T05:00:41.131Z,2.27
2019-03-12T05:03:09.612Z,2.21
2019-03-12T05:05:38.011Z,2.24
2019-03-12T05:08:06.443Z,2.27
2019-03-12T05:10:34.852Z,2.25
2019-03-12T05:13:03.266Z,2.24
2019-03-12T05:15:31.752Z,2.25
2019-03-12T05:18:00.149Z,2.26
2019-03-12T05:20:28.583Z,2.31
2019-03-12T05:22:56.987Z,2.31
2019-03-12T05:25:25.408Z,2.31
2019-03-12T05:27:53.849Z,2.34
2019-03-12T05:30:22.258Z,2.36
2019-03-12T05:32:50.742Z,2.36
2019-03-12T05:35:19.235Z,2.37
2019-03-12T05:37:47.652Z,2.39
2019-03-12T05:40:16.722Z,2.39
2019-03-12T05:42:45.207Z,2.43
2019-03-12T05:45:15.646Z,2.43
2019-03-12T05:47:44.219Z,2.44
2019-03-12T05:50:20.093Z,2.47
2019-03-12T05:52:49.523Z,2.51
2019-03-12T05:55:18.948Z,2.52
2019-03-12T05:57:47.469Z,2.55
2019-03-12T06:00:23.393Z,2.56
2019-03-12T06:02:51.861Z,2.56
2019-03-12T06:05:20.341Z,2.58
2019-03-12T06:07:48.841Z,2.61
2019-03-12T06:10:17.386Z,2.61
2019-03-12T06:12:45.943Z,2.65
2019-03-12T06:15:15.711Z,2.69
2019-03-12T06:17:44.192Z,2.69
2019-03-12T06:20:14.771Z,2.73
2019-03-12T06:22:43.256Z,2.78
2019-03-12T06:25:12.199Z,2.78
2019-03-12T06:27:41.510Z,1.15
2019-03-12T06:30:18.699Z,2.85
2019-03-12T06:32:57.325Z,2.89
2019-03-12T06:35:33.524Z,2.90
2019-03-12T06:38:18.646Z,2.94
2019-03-12T06:41:00.763Z,2.97
2019-03-12T06:43:33.562Z,2.98
2019-03-12T06:46:20.211Z,3.02
2019-03-12T06:48:50.400Z,3.04
2019-03-12T06:51:26.291Z,3.08
2019-03-12T06:54:11.663Z,3.10
2019-03-12T06:56:47.189Z,3.13
2019-03-12T06:59:23.039Z,3.15
2019-03-12T07:01:56.186Z,3.17
2019-03-12T07:04:32.287Z,3.21
2019-03-12T07:07:11.424Z,3.24
2019-03-12T07:09:52.316Z,3.27
2019-03-12T07:12:22.441Z,3.30
2019-03-12T07:14:55.189Z,3.32
2019-03-12T07:17:31.150Z,3.36
2019-03-12T07:20:07.262Z,3.40
2019-03-12T07:22:43.198Z,3.44
2019-03-12T07:25:19.376Z,3.47
2019-03-12T07:27:55.033Z,3.51
2019-03-12T07:30:34.124Z,3.56
2019-03-12T07:33:22.102Z,3.59
2019-03-12T07:35:54.652Z,3.65
2019-03-12T07:38:24.690Z,3.72
2019-03-12T07:41:07.221Z,3.77
2019-03-12T07:43:39.773Z,3.83
2019-03-12T07:46:09.875Z,3.89
2019-03-12T07:48:40.000Z,3.91
2019-03-12T07:51:12.708Z,3.95
2019-03-12T07:53:59.437Z,4.02
2019-03-12T07:56:35.476Z,4.04
2019-03-12T07:59:21.539Z,4.07
2019-03-12T08:02:00.382Z,4.10
2019-03-12T08:04:36.172Z,4.12
2019-03-12T08:07:09.391Z,4.18
2019-03-12T08:09:41.910Z,4.21
2019-03-12T08:12:17.689Z,4.27
2019-03-12T08:14:47.754Z,4.31
2019-03-12T08:17:17.879Z,4.37
2019-03-12T08:20:03.899Z,4.43
2019-03-12T08:22:36.617Z,4.49
2019-03-12T08:25:11.211Z,4.55
2019-03-12T08:27:44.088Z,4.58
2019-03-12T08:30:30.744Z,4.63
2019-03-12T08:33:03.301Z,4.70
2019-03-12T08:35:39.038Z,4.74
2019-03-12T08:38:18.124Z,4.80
2019-03-12T08:40:52.685Z,4.87
2019-03-12T08:43:23.046Z,4.95
2019-03-12T08:45:53.126Z,5.01
2019-03-12T08:48:35.076Z,5.06
2019-03-12T08:51:21.369Z,5.15
2019-03-12T08:53:54.407Z,5.20
2019-03-12T08:56:32.866Z,5.28
2019-03-12T08:59:18.454Z,5.33
2019-03-12T09:01:51.551Z,5.39
2019-03-12T09:04:39.735Z,5.45
2019-03-12T09:07:24.939Z,5.53
2019-03-12T09:09:55.025Z,5.62
2019-03-12T09:12:25.083Z,5.67
2019-03-12T09:14:55.209Z,5.72
2019-03-12T09:17:25.335Z,5.82
2019-03-12T09:20:11.618Z,5.88
2019-03-12T09:22:41.669Z,5.96
2019-03-12T09:25:24.011Z,6.02
2019-03-12T09:28:12.403Z,6.05
2019-03-12T09:31:00.461Z,6.14
2019-03-12T09:33:33.356Z,6.15
2019-03-12T09:36:12.559Z,6.24
2019-03-12T09:38:42.606Z,6.26
2019-03-12T09:41:12.798Z,6.29
2019-03-12T09:43:52.101Z,6.31
2019-03-12T09:46:28.141Z,6.34
2019-03-12T09:48:58.205Z,6.37
2019-03-12T09:51:33.971Z,6.33
2019-03-12T09:54:04.029Z,6.33
2019-03-12T09:56:50.411Z,6.38
2019-03-12T09:59:20.479Z,6.42
2019-03-12T10:02:02.505Z,6.43
2019-03-12T10:04:38.575Z,6.45
2019-03-12T10:07:24.798Z,6.50
2019-03-12T10:09:57.470Z,6.49
2019-03-12T10:12:30.865Z,6.49
2019-03-12T10:15:00.900Z,6.52
2019-03-12T10:17:36.802Z,6.53
2019-03-12T10:20:12.444Z,6.62
2019-03-12T10:22:42.520Z,6.69
2019-03-12T10:25:12.666Z,6.74
2019-03-12T10:27:45.407Z,6.76
2019-03-12T10:30:27.659Z,6.77
2019-03-12T10:32:57.766Z,6.87
2019-03-12T10:35:42.604Z,6.91
2019-03-12T10:38:55.278Z,6.93
2019-03-12T10:41:28.037Z,6.98
2019-03-12T10:43:57.506Z,7.00
2019-03-12T10:46:27.584Z,7.01
2019-03-12T10:48:56.013Z,7.08
2019-03-12T10:51:25.096Z,7.11
2019-03-12T10:53:53.578Z,7.11
2019-03-12T10:56:21.999Z,7.22
2019-03-12T10:58:50.498Z,7.26
2019-03-12T11:01:18.875Z,7.33
2019-03-12T11:03:47.297Z,7.41
2019-03-12T11:06:15.773Z,7.51
2019-03-12T11:08:44.212Z,7.61
2019-03-12T11:11:12.685Z,7.61
2019-03-12T11:13:41.113Z,7.67
2019-03-12T11:16:09.626Z,7.73
2019-03-12T11:18:38.105Z,7.79
2019-03-12T11:21:06.611Z,7.74
2019-03-12T11:23:35.045Z,7.72
2019-03-12T11:26:03.547Z,7.75
2019-03-12T11:28:32.025Z,7.75
2019-03-12T11:31:00.451Z,7.75
2019-03-12T11:33:28.926Z,7.74
2019-03-12T11:35:57.375Z,7.76
2019-03-12T11:38:25.813Z,7.83
2019-03-12T11:40:54.270Z,7.82
2019-03-12T11:43:22.875Z,7.85
2019-03-12T11:45:51.367Z,7.84
2019-03-12T11:48:19.782Z,7.90
2019-03-12T11:50:48.244Z,8.00
2019-03-12T11:53:16.680Z,8.14
2019-03-12T11:55:45.174Z,8.23
2019-03-12T11:58:13.684Z,8.22
2019-03-12T12:00:43.834Z,8.15
2019-03-12T12:03:12.384Z,8.18
2019-03-12T12:05:40.938Z,7.45
2019-03-12T12:08:09.422Z,8.21
2019-03-12T12:10:38.595Z,8.26
2019-03-12T12:13:07.081Z,8.36
2019-03-12T12:15:35.637Z,8.34
2019-03-12T12:18:04.400Z,8.35
2019-03-12T12:20:32.827Z,8.35
2019-03-12T12:23:01.245Z,8.35
2019-03-12T12:25:29.734Z,8.39
2019-03-12T12:27:58.235Z,8.44
2019-03-12T12:30:26.779Z,8.42
2019-03-12T12:32:55.276Z,8.44
2019-03-12T12:35:23.685Z,8.42
2019-03-12T12:37:52.158Z,8.40
2019-03-12T12:40:22.023Z,8.45
2019-03-12T12:42:50.506Z,8.54
2019-03-12T12:45:33.419Z,8.60
2019-03-12T12:48:01.874Z,8.65
2019-03-12T12:50:30.520Z,8.77
2019-03-12T12:52:59.103Z,8.84
2019-03-12T12:55:27.586Z,8.86
2019-03-12T12:57:56.104Z,8.88
2019-03-12T13:00:31.543Z,8.85
2019-03-12T13:03:00.158Z,8.87
2019-03-12T13:05:28.743Z,8.88
2019-03-12T13:07:57.159Z,8.95
2019-03-12T13:10:29.909Z,8.97
2019-03-12T13:12:58.395Z,8.99
2019-03-12T13:15:26.817Z,9.01
2019-03-12T13:17:55.299Z,9.06
2019-03-12T13:20:24.000Z,9.07
2019-03-12T13:22:52.620Z,9.09
2019-03-12T13:25:21.374Z,9.12
2019-03-12T13:27:49.864Z,9.07
2019-03-12T13:30:26.368Z,9.11
2019-03-12T13:32:54.841Z,9.26
2019-03-12T13:35:23.422Z,9.26
2019-03-12T13:37:51.942Z,9.34
2019-03-12T13:40:22.421Z,9.29
2019-03-12T13:42:51.133Z,9.21
2019-03-12T13:45:22.224Z,9.22
2019-03-12T13:47:50.834Z,9.22
2019-03-12T13:50:19.549Z,9.26
2019-03-12T13:52:48.085Z,9.27
2019-03-12T13:55:17.136Z,9.31
2019-03-12T13:57:46.116Z,9.27
2019-03-12T14:00:23.042Z,9.20
2019-03-12T14:02:51.521Z,9.16
2019-03-12T14:05:20.261Z,9.15
2019-03-12T14:07:48.829Z,9.14
2019-03-12T14:10:22.773Z,9.15
2019-03-12T14:12:53.400Z,9.12
2019-03-12T14:15:37.892Z,6.15
2019-03-12T14:18:06.530Z,9.06
2019-03-12T14:20:52.629Z,9.03
2019-03-12T14:23:33.029Z,9.01
2019-03-12T14:26:01.613Z,8.98
2019-03-12T14:28:30.119Z,8.98
2019-03-12T14:30:58.699Z,8.98
2019-03-12T14:33:27.305Z,9.00
2019-03-12T14:35:55.774Z,8.99
2019-03-12T14:38:24.554Z,8.97
2019-03-12T14:40:53.138Z,8.99
2019-03-12T14:43:21.626Z,8.95
2019-03-12T14:45:51.753Z,8.91
2019-03-12T14:48:39.135Z,8.90
2019-03-12T14:51:13.523Z,8.87
2019-03-12T14:53:43.589Z,8.87
2019-03-12T14:56:12.074Z,8.89
2019-03-12T14:58:40.633Z,8.89
2019-03-12T15:01:09.012Z,8.88
2019-03-12T15:03:37.402Z,8.90
2019-03-12T15:06:05.974Z,8.86
2019-03-12T15:08:34.466Z,8.89
2019-03-12T15:11:03.007Z,8.86
2019-03-12T15:13:31.447Z,8.87
2019-03-12T15:15:59.845Z,8.87
2019-03-12T15:18:28.264Z,8.87
2019-03-12T15:20:56.671Z,8.87
2019-03-12T15:23:25.074Z,8.88
2019-03-12T15:25:53.546Z,8.86
2019-03-12T15:28:21.944Z,8.86
2019-03-12T15:30:50.503Z,8.82
2019-03-12T15:33:18.912Z,8.80
2019-03-12T15:35:47.384Z,8.85
2019-03-12T15:38:15.913Z,8.84
2019-03-12T15:40:44.370Z,8.83
2019-03-12T15:43:12.787Z,8.78
2019-03-12T15:45:41.194Z,8.82
2019-03-12T15:48:09.697Z,8.86
2019-03-12T15:50:38.106Z,8.79
2019-03-12T15:53:07.281Z,8.76
2019-03-12T15:55:36.173Z,8.78
2019-03-12T15:58:04.679Z,8.87
2019-03-12T16:00:33.084Z,8.81
2019-03-12T16:03:01.501Z,8.79
2019-03-12T16:05:30.027Z,8.78
2019-03-12T16:07:58.438Z,8.81
2019-03-12T16:10:26.854Z,8.84
2019-03-12T16:12:55.235Z,8.82
2019-03-12T16:15:23.712Z,8.82
2019-03-12T16:17:52.191Z,8.79
2019-03-12T16:20:24.084Z,8.77
2019-03-12T16:22:52.473Z,8.79
2019-03-12T16:25:20.879Z,8.74
2019-03-12T16:27:49.286Z,8.78
2019-03-12T16:30:19.140Z,8.76
2019-03-12T16:32:47.547Z,8.79
2019-03-12T16:35:16.103Z,8.78
2019-03-12T16:37:44.491Z,8.79
2019-03-12T16:40:17.460Z,8.78
2019-03-12T16:42:46.026Z,8.78
2019-03-12T16:45:16.706Z,8.78
2019-03-12T16:47:45.219Z,8.82
2019-03-12T16:50:18.073Z,8.82
2019-03-12T16:52:46.577Z,8.83
2019-03-12T16:55:18.740Z,8.80
2019-03-12T16:57:47.164Z,8.77
2019-03-12T17:00:20.132Z,8.73
2019-03-12T17:02:48.572Z,8.73
2019-03-12T17:05:17.134Z,8.77
2019-03-12T17:07:45.569Z,8.79
2019-03-12T17:10:16.648Z,8.78
2019-03-12T17:12:45.186Z,8.73
2019-03-12T17:15:15.934Z,8.70
2019-03-12T17:17:44.443Z,8.66
2019-03-12T17:20:14.557Z,8.69
2019-03-12T17:22:43.037Z,8.71
2019-03-12T17:25:14.614Z,8.74
2019-03-12T17:27:43.201Z,8.72
2019-03-12T17:30:17.088Z,8.70
2019-03-12T17:32:45.724Z,8.72
2019-03-12T17:35:19.824Z,8.70
2019-03-12T17:37:48.230Z,8.71
2019-03-12T17:40:19.278Z,8.65
2019-03-12T17:42:47.757Z,8.65
2019-03-12T17:45:16.229Z,8.60
2019-03-12T17:47:44.665Z,8.58
2019-03-12T17:50:14.239Z,8.57
2019-03-12T17:52:42.774Z,8.55
2019-03-12T17:55:14.265Z,8.55
2019-03-12T17:57:43.126Z,8.54
2019-03-12T18:00:23.604Z,8.58
2019-03-12T18:02:52.102Z,8.60
2019-03-12T18:05:20.503Z,8.57
2019-03-12T18:07:48.929Z,8.57
2019-03-12T18:10:18.915Z,8.61
2019-03-12T18:12:47.695Z,8.59
2019-03-12T18:44:08.118Z,8.75
2019-03-12T18:46:36.550Z,8.70
2019-03-12T18:49:05.053Z,8.72
2019-03-12T18:51:33.522Z,8.69
2019-03-12T18:54:01.944Z,8.70
2019-03-12T18:56:30.346Z,8.70
2019-03-12T18:58:58.806Z,8.68
2019-03-12T19:01:27.307Z,8.71
2019-03-12T19:03:55.737Z,8.71
2019-03-12T19:06:24.149Z,8.74
2019-03-12T19:08:52.769Z,8.68
2019-03-12T19:11:21.208Z,8.69
2019-03-12T19:13:49.720Z,8.75
2019-03-12T19:16:18.111Z,8.72
2019-03-12T19:18:46.678Z,8.75
2019-03-12T19:21:15.075Z,8.77
2019-03-12T19:23:43.581Z,8.79
2019-03-12T19:26:11.985Z,8.77
2019-03-12T19:28:40.444Z,8.70
2019-03-12T19:31:10.547Z,8.60
2019-03-12T19:33:38.988Z,8.53
2019-03-12T19:36:07.453Z,8.45
2019-03-12T19:38:35.868Z,8.42
2019-03-12T19:41:06.358Z,8.44
2019-03-12T19:43:34.882Z,8.40
2019-03-12T19:46:03.384Z,8.37
2019-03-12T19:48:31.888Z,8.31
2019-03-12T19:51:00.292Z,8.27
2019-03-12T19:53:28.759Z,8.25
2019-03-12T19:56:00.232Z,8.23
2019-03-12T19:58:28.883Z,8.24
2019-03-12T20:00:58.156Z,8.25
2019-03-12T20:03:26.703Z,8.27
2019-03-12T20:05:55.243Z,8.25
2019-03-12T20:08:23.665Z,8.22
2019-03-12T20:11:00.895Z,8.19
2019-03-12T20:13:41.254Z,8.14
2019-03-12T20:16:30.949Z,8.13
2019-03-12T20:19:26.378Z,8.09
2019-03-12T20:22:22.092Z,8.11
2019-03-12T20:25:10.064Z,8.27
2019-03-12T20:27:45.289Z,8.20
2019-03-12T20:30:22.469Z,8.10
2019-03-12T20:33:22.038Z,8.10
2019-03-12T20:35:56.077Z,8.09
2019-03-12T20:38:36.759Z,8.06
2019-03-12T20:41:27.550Z,8.13
2019-03-12T20:44:07.774Z,8.27
2019-03-12T20:47:13.124Z,8.32
2019-03-12T20:50:19.096Z,8.35
2019-03-12T20:53:22.277Z,8.44
2019-03-12T20:55:59.646Z,8.60
2019-03-12T20:58:56.295Z,8.60
2019-03-12T21:01:56.457Z,8.74
2019-03-12T21:04:44.567Z,8.80
2019-03-12T21:07:47.691Z,8.66
2019-03-12T21:10:44.833Z,8.67
2019-03-12T21:13:40.457Z,8.69
2019-03-12T21:16:20.596Z,8.59
2019-03-12T21:19:14.304Z,8.34
2019-03-12T21:22:03.923Z,6.97
2019-03-12T21:24:47.582Z,6.42
2019-03-12T21:27:21.845Z,6.02
2019-03-12T21:29:49.685Z,5.78
2019-03-12T21:32:19.054Z,5.59
2019-03-12T21:34:47.750Z,5.53
2019-03-12T21:37:16.366Z,5.54
2019-03-12T21:39:54.424Z,5.51
2019-03-12T21:42:15.229Z,5.47
2019-03-12T21:44:43.781Z,5.45
2019-03-12T21:47:12.342Z,5.35
2019-03-12T21:49:40.843Z,5.27
2019-03-12T21:52:09.378Z,5.24
2019-03-12T21:54:37.958Z,5.20
2019-03-12T21:57:06.346Z,5.23
2019-03-12T21:59:34.839Z,5.20
2019-03-12T22:02:03.349Z,5.13
2019-03-12T22:04:31.723Z,5.11
2019-03-12T22:07:00.196Z,5.08
2019-03-12T22:09:28.766Z,5.08
2019-03-12T22:11:57.255Z,5.08
2019-03-12T22:14:25.720Z,5.04
2019-03-12T22:16:54.932Z,5.05
2019-03-12T22:19:23.343Z,5.06
2019-03-12T22:21:56.295Z,5.05
2019-03-12T22:24:24.669Z,5.09
2019-03-12T22:26:53.114Z,5.09
2019-03-12T22:29:21.528Z,5.11
2019-03-12T22:31:50.055Z,5.13
2019-03-12T22:34:18.477Z,5.13
2019-03-12T22:36:46.856Z,5.10
2019-03-12T22:39:15.279Z,5.12
2019-03-12T22:41:43.692Z,5.11
2019-03-12T22:44:12.109Z,5.16
2019-03-12T22:46:40.507Z,5.17
2019-03-12T22:49:08.912Z,5.22
2019-03-12T22:51:37.324Z,5.22
2019-03-12T22:54:05.816Z,5.21
2019-03-12T22:56:34.221Z,5.18
2019-03-12T22:59:02.713Z,5.20
2019-03-12T23:01:31.319Z,5.21
2019-03-12T23:03:59.728Z,5.21
2019-03-12T23:06:28.908Z,5.21
2019-03-12T23:08:57.806Z,5.21
2019-03-12T23:11:26.465Z,5.22
2019-03-12T23:13:55.025Z,5.22
2019-03-12T23:16:23.536Z,5.22
2019-03-12T23:18:51.986Z,5.22
2019-03-12T23:21:20.448Z,5.21
2019-03-12T23:23:48.880Z,5.22
2019-03-12T23:26:17.334Z,5.23
2019-03-12T23:28:45.733Z,5.24
2019-03-12T23:31:14.206Z,5.23
2019-03-12T23:33:42.819Z,5.22
2019-03-12T23:36:11.632Z,5.23
2019-03-12T23:38:40.112Z,5.22
2019-03-12T23:41:08.554Z,5.22
2019-03-12T23:43:37.008Z,5.24
2019-03-12T23:46:05.751Z,5.23
2019-03-12T23:48:34.171Z,5.25
2019-03-12T23:51:02.834Z,5.22
2019-03-12T23:53:31.306Z,5.22
2019-03-12T23:55:59.792Z,5.23
2019-03-12T23:58:30.387Z,5.21
